1871 Hurricane NOT_NAMED (1871266N11315)


IBTrACS version v04r00. Visit IBTrACS website for data access.
Please direct all questions to the IBTrACS Q and A forum

Storm track - Intensity - Wind Radii - Intensity Data - Source Data - All data

Summary Information

Storm ID 1871266N11315
Start Sep 23 00Z
Max Intensity 80 kt (Sep 26 18Z)
End Oct 1 12Z
ATCF IDs
Track status Best track data.

Storm track plot

Map of storm track

Intensity plots

Map of storm track

Radial wind information

No radial wind information for this storm


Position and Intensity Table

BASIN ISO_TIME_________ NATURE LAT LON MLC WIND
degrees north degrees east kts
NA 1871-09-23 00:00:00 TS 10.50 -45.00 30
NA 03:00:00 TS 10.71 -45.66 32
NA 06:00:00 TS 10.90 -46.30 35
NA 09:00:00 TS 11.05 -46.90 37
NA 12:00:00 TS 11.20 -47.50 40
NA 15:00:00 TS 11.40 -48.15 42
NA 18:00:00 TS 11.60 -48.80 45
NA 21:00:00 TS 11.75 -49.40 47
NA 1871-09-24 00:00:00 TS 11.90 -50.00 50
NA 03:00:00 TS 12.10 -50.65 52
NA 06:00:00 TS 12.30 -51.30 55
NA 09:00:00 TS 12.43 -51.90 55
NA 12:00:00 TS 12.60 -52.50 55
NA 15:00:00 TS 12.88 -53.15 57
NA 18:00:00 TS 13.20 -53.80 60
NA 21:00:00 TS 13.50 -54.40 60
NA 1871-09-25 00:00:00 TS 13.80 -55.00 60
NA 03:00:00 TS 14.10 -55.65 65
NA 06:00:00 TS 14.40 -56.30 70
NA 09:00:00 TS 14.68 -56.90 72
NA 12:00:00 TS 15.00 -57.50 75
NA 15:00:00 TS 15.38 -58.15 75
NA 18:00:00 TS 15.80 -58.80 75
NA 21:00:00 TS 16.25 -59.40 75
NA 1871-09-26 00:00:00 TS 16.70 -60.00 75
NA 03:00:00 TS 17.11 -60.65 75
NA 06:00:00 TS 17.50 -61.30 75
NA 09:00:00 TS 17.92 -61.92 75
NA 12:00:00 TS 18.30 -62.50 75
NA 15:00:00 TS 18.57 -63.10 77
NA 18:00:00 TS 18.80 -63.60 80
NA 21:00:00 TS 19.10 -63.95 80
NA 1871-09-27 00:00:00 TS 19.40 -64.20 80
NA 03:00:00 TS 19.63 -64.43 80
NA 06:00:00 TS 19.90 -64.70 80
NA 09:00:00 TS 20.31 -65.13 80
NA 12:00:00 TS 20.80 -65.60 80
NA 15:00:00 TS 21.30 -66.04 80
NA 18:00:00 TS 21.80 -66.40 80
NA 21:00:00 TS 22.25 -66.64 80
NA 1871-09-28 00:00:00 TS 22.70 -66.80 80
NA 03:00:00 TS 23.22 -66.97 80
NA 06:00:00 TS 23.70 -67.10 80
NA 09:00:00 TS 24.02 -67.17 80
NA 12:00:00 TS 24.30 -67.20 80
NA 15:00:00 TS 24.64 -67.26 77
NA 18:00:00 TS 25.00 -67.30 75
NA 21:00:00 TS 25.36 -67.27 75
NA 1871-09-29 00:00:00 TS 25.70 -67.20 75
NA 03:00:00 TS 25.97 -67.16 75
NA 06:00:00 TS 26.30 -67.10 75
NA 09:00:00 TS 26.81 -66.97 75
NA 12:00:00 TS 27.40 -66.80 75
NA 15:00:00 TS 27.95 -66.67 75
NA 18:00:00 TS 28.50 -66.50 75
NA 21:00:00 TS 29.06 -66.22 72
NA 1871-09-30 00:00:00 TS 29.60 -65.90 70
NA 03:00:00 TS 30.08 -65.69 70
NA 06:00:00 TS 30.60 -65.40 70
NA 09:00:00 TS 31.27 -64.95 67
NA 12:00:00 TS 32.00 -64.30 65
NA 15:00:00 TS 32.70 -63.43 62
NA 18:00:00 TS 33.40 -62.50 60
NA 21:00:00 TS 34.10 -61.73 55
NA 1871-10-01 00:00:00 TS 34.80 -61.00 50
NA 03:00:00 TS 35.50 -60.25 45
NA 06:00:00 TS 36.20 -59.50 40
NA 09:00:00 TS 36.90 -58.75 35
NA 12:00:00 TS 37.60 -58.00 30

Source Information

Agency Information
USA
TOKYO
CMA
HKO
NEWDELHI
REUNION
BOM
NADI
WELLINGTON
DS824
TD9636
TD9635
NEUMANN
MLC

All available IBTrACS Data

SEASON BASIN SUBBASIN ISO_TIME_________ NATURE LAT LON DIST2LAND LANDFALL IFLAG USA SSHS MLC LAT MLC LON MLC CLASS MLC WIND STORM SPEED STORM DIR
Year degrees north degrees east km km 1 degrees north degrees east kts kts degrees
1871 NA NA 1871-09-23 00:00:00 TS 10.50 -45.00 982 953 _____________O -1 10.50 -45.00 TD 30 14 288
1871 NA NA 03:00:00 TS 10.71 -45.66 946 922 _____________P -1 10.71 -45.66 TD 32 13 287
1871 NA NA 06:00:00 TS 10.90 -46.30 922 893 _____________O -1 10.90 -46.30 TS 35 13 285
1871 NA NA 09:00:00 TS 11.05 -46.90 893 875 _____________P -1 11.05 -46.90 TS 37 12 284
1871 NA NA 12:00:00 TS 11.20 -47.50 875 850 _____________O -1 11.20 -47.50 TS 40 13 286
1871 NA NA 15:00:00 TS 11.40 -48.15 853 829 _____________P -1 11.40 -48.15 TS 42 13 287
1871 NA NA 18:00:00 TS 11.60 -48.80 829 808 _____________O -1 11.60 -48.80 TS 45 13 286
1871 NA NA 21:00:00 TS 11.75 -49.40 808 799 _____________P -1 11.75 -49.40 TS 47 12 284
1871 NA NA 1871-09-24 00:00:00 TS 11.90 -50.00 800 792 _____________O -1 11.90 -50.00 TS 50 13 286
1871 NA NA 03:00:00 TS 12.10 -50.65 798 783 _____________P -1 12.10 -50.65 TS 52 13 287
1871 NA NA 06:00:00 TS 12.30 -51.30 784 770 _____________O -1 12.30 -51.30 TS 55 13 285
1871 NA NA 09:00:00 TS 12.43 -51.90 770 767 _____________P -1 12.43 -51.90 TS 55 12 284
1871 NA NA 12:00:00 TS 12.60 -52.50 773 770 _____________O -1 12.60 -52.50 TS 55 13 290
1871 NA NA 15:00:00 TS 12.88 -53.15 793 790 _____________P -1 12.88 -53.15 TS 57 14 295
1871 NA NA 18:00:00 TS 13.20 -53.80 813 783 _____________O -1 13.20 -53.80 TS 60 14 297
1871 NA NA 21:00:00 TS 13.50 -54.40 783 738 _____________P -1 13.50 -54.40 TS 60 13 297
1871 NA NA 1871-09-25 00:00:00 TS 13.80 -55.00 738 699 _____________O -1 13.80 -55.00 TS 60 14 296
1871 NA NA 03:00:00 TS 14.10 -55.65 690 657 _____________P -1 14.10 -55.65 TS 65 14 295
1871 NA NA 06:00:00 TS 14.40 -56.30 657 631 _____________O -1 14.40 -56.30 HU 70 13 296
1871 NA NA 09:00:00 TS 14.68 -56.90 631 611 _____________P -1 14.68 -56.90 HU 72 13 297
1871 NA NA 12:00:00 TS 15.00 -57.50 613 603 _____________O -1 15.00 -57.50 HU 75 14 300
1871 NA NA 15:00:00 TS 15.38 -58.15 607 602 _____________P -1 15.38 -58.15 HU 75 15 303
1871 NA NA 18:00:00 TS 15.80 -58.80 618 614 _____________O -1 15.80 -58.80 HU 75 15 306
1871 NA NA 21:00:00 TS 16.25 -59.40 639 617 _____________P -1 16.25 -59.40 HU 75 15 308
1871 NA NA 1871-09-26 00:00:00 TS 16.70 -60.00 617 543 _____________O -1 16.70 -60.00 HU 75 15 306
1871 NA CS 03:00:00 TS 17.11 -60.65 533 461 _____________P -1 17.11 -60.65 HU 75 15 303
1871 NA CS 06:00:00 TS 17.50 -61.30 461 392 _____________O -1 17.50 -61.30 HU 75 15 304
1871 NA CS 09:00:00 TS 17.92 -61.92 392 327 _____________P -1 17.92 -61.92 HU 75 14 305
1871 NA CS 12:00:00 TS 18.30 -62.50 327 264 _____________O -1 18.30 -62.50 HU 75 13 300
1871 NA CS 15:00:00 TS 18.57 -63.10 264 215 _____________P -1 18.57 -63.10 HU 77 12 296
1871 NA CS 18:00:00 TS 18.80 -63.60 215 191 _____________O -1 18.80 -63.60 HU 80 10 304
1871 NA NA 21:00:00 TS 19.10 -63.95 195 181 _____________P -1 19.10 -63.95 HU 80 8 317
1871 NA NA 1871-09-27 00:00:00 TS 19.40 -64.20 184 183 _____________O -1 19.40 -64.20 HU 80 7 319
1871 NA NA 03:00:00 TS 19.63 -64.43 184 184 _____________P -1 19.63 -64.43 HU 80 7 317
1871 NA NA 06:00:00 TS 19.90 -64.70 192 192 _____________O -1 19.90 -64.70 HU 80 10 316
1871 NA NA 09:00:00 TS 20.31 -65.13 218 216 _____________P -1 20.31 -65.13 HU 80 12 317
1871 NA NA 12:00:00 TS 20.80 -65.60 268 268 _____________O -1 20.80 -65.60 HU 80 13 319
1871 NA NA 15:00:00 TS 21.30 -66.04 324 324 _____________P -1 21.30 -66.04 HU 80 13 323
1871 NA NA 18:00:00 TS 21.80 -66.40 380 380 _____________O -1 21.80 -66.40 HU 80 11 330
1871 NA NA 21:00:00 TS 22.25 -66.64 424 424 _____________P -1 22.25 -66.64 HU 80 10 338
1871 NA NA 1871-09-28 00:00:00 TS 22.70 -66.80 460 460 _____________O -1 22.70 -66.80 HU 80 10 342
1871 NA NA 03:00:00 TS 23.22 -66.97 496 496 _____________P -1 23.22 -66.97 HU 80 10 344
1871 NA NA 06:00:00 TS 23.70 -67.10 542 542 _____________O -1 23.70 -67.10 HU 80 8 347
1871 NA NA 09:00:00 TS 24.02 -67.17 568 568 _____________P -1 24.02 -67.17 HU 80 6 352
1871 NA NA 12:00:00 TS 24.30 -67.20 599 599 _____________O -1 24.30 -67.20 HU 80 6 352
1871 NA NA 15:00:00 TS 24.64 -67.26 624 624 _____________P -1 24.64 -67.26 HU 77 7 353
1871 NA NA 18:00:00 TS 25.00 -67.30 664 664 _____________O -1 25.00 -67.30 HU 75 7 358
1871 NA NA 21:00:00 TS 25.36 -67.27 705 705 _____________P -1 25.36 -67.27 HU 75 7 7
1871 NA NA 1871-09-29 00:00:00 TS 25.70 -67.20 739 739 _____________O -1 25.70 -67.20 HU 75 6 9
1871 NA NA 03:00:00 TS 25.97 -67.16 770 770 _____________P -1 25.97 -67.16 HU 75 6 8
1871 NA NA 06:00:00 TS 26.30 -67.10 805 805 _____________O -1 26.30 -67.10 HU 75 9 12
1871 NA NA 09:00:00 TS 26.81 -66.97 861 861 _____________P -1 26.81 -66.97 HU 75 11 14
1871 NA NA 12:00:00 TS 27.40 -66.80 930 930 _____________O -1 27.40 -66.80 HU 75 12 13
1871 NA NA 15:00:00 TS 27.95 -66.67 982 982 _____________P -1 27.95 -66.67 HU 75 11 14
1871 NA NA 18:00:00 TS 28.50 -66.50 1045 1045 _____________O -1 28.50 -66.50 HU 75 12 20
1871 NA NA 21:00:00 TS 29.06 -66.22 1116 1116 _____________P -1 29.06 -66.22 HU 72 12 26
1871 NA NA 1871-09-30 00:00:00 TS 29.60 -65.90 1131 1117 _____________O -1 29.60 -65.90 HU 70 11 24
1871 NA NA 03:00:00 TS 30.08 -65.69 1111 1100 _____________P -1 30.08 -65.69 HU 70 11 23
1871 NA NA 06:00:00 TS 30.60 -65.40 1101 1093 _____________O -1 30.60 -65.40 HU 70 14 28
1871 NA NA 09:00:00 TS 31.27 -64.95 1100 1094 _____________P -1 31.27 -64.95 HU 67 17 34
1871 NA NA 12:00:00 TS 32.00 -64.30 1114 1114 _____________O -1 32.00 -64.30 HU 65 19 42
1871 NA NA 15:00:00 TS 32.70 -63.43 1158 1134 _____________P -1 32.70 -63.43 HU 62 21 47
1871 NA NA 18:00:00 TS 33.40 -62.50 1134 1089 _____________O -1 33.40 -62.50 TS 60 20 46
1871 NA NA 21:00:00 TS 34.10 -61.73 1091 1036 _____________P -1 34.10 -61.73 TS 55 19 42
1871 NA NA 1871-10-01 00:00:00 TS 34.80 -61.00 1036 987 _____________O -1 34.80 -61.00 TS 50 19 41
1871 NA NA 03:00:00 TS 35.50 -60.25 991 950 _____________P -1 35.50 -60.25 TS 45 19 41
1871 NA NA 06:00:00 TS 36.20 -59.50 950 917 _____________O -1 36.20 -59.50 TS 40 19 41
1871 NA NA 09:00:00 TS 36.90 -58.75 917 883 _____________P -1 36.90 -58.75 TS 35 18 41
1871 NA NA 12:00:00 TS 37.60 -58.00 883 _____________O -1 37.60 -58.00 TD 30 18 40